createdAt,value
2022-11-24T00:00:56.873Z,973.69
2022-11-24T00:01:56.883Z,973.70
2022-11-24T00:02:57.035Z,973.72
2022-11-24T00:03:56.848Z,973.73
2022-11-24T00:04:56.834Z,973.74
2022-11-24T00:05:56.837Z,973.73
2022-11-24T00:06:56.827Z,973.74
2022-11-24T00:07:56.844Z,973.76
2022-11-24T00:08:56.796Z,973.74
2022-11-24T00:09:56.792Z,973.77
2022-11-24T00:10:56.767Z,973.80
2022-11-24T00:11:56.761Z,973.82
2022-11-24T00:12:56.745Z,973.84
2022-11-24T00:13:56.740Z,973.86
2022-11-24T00:14:56.738Z,973.88
2022-11-24T00:15:56.722Z,973.91
2022-11-24T00:16:56.809Z,973.91
2022-11-24T00:17:56.697Z,973.89
2022-11-24T00:18:56.684Z,973.90
2022-11-24T00:19:56.689Z,973.91
2022-11-24T00:20:56.688Z,973.93
2022-11-24T00:21:56.659Z,973.92
2022-11-24T00:22:56.644Z,973.94
2022-11-24T00:23:56.644Z,973.94
2022-11-24T00:24:56.630Z,973.95
2022-11-24T00:25:56.621Z,973.96
2022-11-24T00:26:56.626Z,973.97
2022-11-24T00:27:56.598Z,973.96
2022-11-24T00:28:56.581Z,973.97
2022-11-24T00:29:56.573Z,973.98
2022-11-24T00:30:56.595Z,973.98
2022-11-24T00:31:56.572Z,974.00
2022-11-24T00:32:56.539Z,974.02
2022-11-24T00:33:56.531Z,974.05
2022-11-24T00:34:56.549Z,974.07
2022-11-24T00:35:56.507Z,974.08
2022-11-24T00:36:56.507Z,974.12
2022-11-24T00:37:56.496Z,974.12
2022-11-24T00:38:56.475Z,974.15
2022-11-24T00:39:56.479Z,974.17
2022-11-24T00:40:56.458Z,974.17
2022-11-24T00:41:56.458Z,974.20
2022-11-24T00:42:56.439Z,974.22
2022-11-24T00:43:56.444Z,974.23
2022-11-24T00:44:56.425Z,974.24
2022-11-24T00:45:56.494Z,974.26
2022-11-24T00:46:56.490Z,974.26
2022-11-24T00:47:56.397Z,974.29
2022-11-24T00:48:56.379Z,974.31
2022-11-24T00:49:56.373Z,974.31
2022-11-24T00:50:56.356Z,974.34
2022-11-24T00:51:56.347Z,974.35
2022-11-24T00:52:56.327Z,974.34
2022-11-24T00:53:56.346Z,974.30
2022-11-24T00:54:56.318Z,974.31
2022-11-24T00:55:56.296Z,974.32
2022-11-24T00:56:56.280Z,974.32
2022-11-24T00:57:56.284Z,974.32
2022-11-24T00:58:56.278Z,974.30
2022-11-24T00:59:56.258Z,974.29
2022-11-24T01:00:56.271Z,974.33
2022-11-24T01:01:56.295Z,974.35
2022-11-24T01:02:56.285Z,974.33
2022-11-24T01:03:56.236Z,974.36
2022-11-24T01:04:56.199Z,974.38
2022-11-24T01:05:56.191Z,974.41
2022-11-24T01:06:56.188Z,974.42
2022-11-24T01:07:56.232Z,974.42
2022-11-24T01:08:56.169Z,974.45
2022-11-24T01:09:56.156Z,974.48
2022-11-24T01:10:56.136Z,974.50
2022-11-24T01:11:56.144Z,974.53
2022-11-24T01:12:56.120Z,974.54
2022-11-24T01:13:56.125Z,974.54
2022-11-24T01:14:56.108Z,974.55
2022-11-24T01:15:56.208Z,974.55
2022-11-24T01:16:56.078Z,974.55
2022-11-24T01:17:56.069Z,974.55
2022-11-24T01:18:56.045Z,974.57
2022-11-24T01:19:56.043Z,974.59
2022-11-24T01:20:56.044Z,974.60
2022-11-24T01:21:56.026Z,974.59
2022-11-24T01:22:56.039Z,974.61
2022-11-24T01:23:55.995Z,974.61
2022-11-24T01:24:56.009Z,974.62
2022-11-24T01:25:55.981Z,974.63
2022-11-24T01:26:55.964Z,974.62
2022-11-24T01:27:55.955Z,974.64
2022-11-24T01:28:55.953Z,974.65
2022-11-24T01:29:55.936Z,974.65
2022-11-24T01:30:55.973Z,974.66
2022-11-24T01:31:55.929Z,974.67
2022-11-24T01:32:55.901Z,974.70
2022-11-24T01:33:55.918Z,974.71
2022-11-24T01:34:55.899Z,974.73
2022-11-24T01:35:55.870Z,974.73
2022-11-24T01:36:55.875Z,974.74
2022-11-24T01:37:55.849Z,974.74
2022-11-24T01:38:55.837Z,974.76
2022-11-24T01:39:55.833Z,974.77
2022-11-24T01:40:55.816Z,974.79
2022-11-24T01:41:55.808Z,974.80
2022-11-24T01:42:55.814Z,974.81
2022-11-24T01:43:55.802Z,974.82
2022-11-24T01:44:55.771Z,974.82
2022-11-24T01:45:55.833Z,974.87
2022-11-24T01:47:02.247Z,974.89
2022-11-24T01:47:55.741Z,974.91
2022-11-24T01:48:55.725Z,974.92
2022-11-24T01:49:55.718Z,974.92
2022-11-24T01:50:55.706Z,974.92
2022-11-24T01:51:55.716Z,974.91
2022-11-24T01:52:55.700Z,974.92
2022-11-24T01:53:55.699Z,974.93
2022-11-24T01:54:55.664Z,974.92
2022-11-24T01:55:55.658Z,974.90
2022-11-24T01:56:55.647Z,974.91
2022-11-24T01:57:55.653Z,974.92
2022-11-24T01:58:55.622Z,974.92
2022-11-24T01:59:55.619Z,974.94
2022-11-24T02:00:55.602Z,974.96
2022-11-24T02:01:55.624Z,974.97
2022-11-24T02:02:55.623Z,974.99
2022-11-24T02:03:55.583Z,975.00
2022-11-24T02:04:55.570Z,975.02
2022-11-24T02:05:55.555Z,975.02
2022-11-24T02:06:55.537Z,975.02
2022-11-24T02:07:55.602Z,975.02
2022-11-24T02:08:55.540Z,975.02
2022-11-24T02:09:55.510Z,975.02
2022-11-24T02:10:55.502Z,975.02
2022-11-24T02:13:22.569Z,975.04
2022-11-24T02:13:27.584Z,975.06
2022-11-24T02:14:27.586Z,975.07
2022-11-24T02:15:27.553Z,975.07
2022-11-24T02:16:27.559Z,975.10
2022-11-24T02:17:27.533Z,975.09
2022-11-24T02:18:27.520Z,975.12
2022-11-24T02:19:27.535Z,975.13
2022-11-24T02:20:27.513Z,975.13
2022-11-24T02:21:27.494Z,975.14
2022-11-24T02:22:27.485Z,975.14
2022-11-24T02:23:27.471Z,975.15
2022-11-24T02:24:27.464Z,975.14
2022-11-24T02:25:27.461Z,975.13
2022-11-24T02:26:27.445Z,975.15
2022-11-24T02:27:27.428Z,975.16
2022-11-24T02:28:27.425Z,975.16
2022-11-24T02:29:27.420Z,975.17
2022-11-24T02:30:27.406Z,975.18
2022-11-24T02:31:27.447Z,975.18
2022-11-24T02:32:27.409Z,975.19
2022-11-24T02:33:27.366Z,975.20
2022-11-24T02:34:27.353Z,975.20
2022-11-24T02:35:27.348Z,975.19
2022-11-24T02:36:27.343Z,975.20
2022-11-24T02:37:27.337Z,975.19
2022-11-24T02:38:27.311Z,975.19
2022-11-24T02:39:27.307Z,975.21
2022-11-24T02:40:27.291Z,975.23
2022-11-24T02:41:27.299Z,975.23
2022-11-24T02:42:27.283Z,975.24
2022-11-24T02:43:27.270Z,975.23
2022-11-24T02:44:27.247Z,975.24
2022-11-24T02:45:27.265Z,975.23
2022-11-24T02:46:27.267Z,975.23
2022-11-24T02:47:27.227Z,975.23
2022-11-24T02:48:27.214Z,975.24
2022-11-24T02:49:27.203Z,975.26
2022-11-24T02:50:27.200Z,975.26
2022-11-24T02:51:27.187Z,975.26
2022-11-24T02:52:27.173Z,975.25
2022-11-24T02:53:27.166Z,975.26
2022-11-24T02:54:27.139Z,975.26
2022-11-24T02:55:27.147Z,975.28
2022-11-24T02:56:27.117Z,975.30
2022-11-24T02:57:27.118Z,975.30
2022-11-24T02:58:27.095Z,975.30
2022-11-24T02:59:27.100Z,975.31
2022-11-24T03:00:27.080Z,975.32
2022-11-24T03:01:27.151Z,975.33
2022-11-24T03:02:27.139Z,975.35
2022-11-24T03:03:27.045Z,975.38
2022-11-24T03:04:27.053Z,975.40
2022-11-24T03:05:27.027Z,975.40
2022-11-24T03:06:27.018Z,975.42
2022-11-24T03:07:27.035Z,975.43
2022-11-24T03:08:26.989Z,975.44
2022-11-24T03:09:26.991Z,975.44
2022-11-24T03:10:27.000Z,975.43
2022-11-24T03:11:26.966Z,975.44
2022-11-24T03:12:26.954Z,975.47
2022-11-24T03:13:26.943Z,975.48
2022-11-24T03:14:26.940Z,975.50
2022-11-24T03:15:26.919Z,975.53
2022-11-24T03:16:26.977Z,975.55
2022-11-24T03:17:26.902Z,975.55
2022-11-24T03:18:26.886Z,975.56
2022-11-24T03:19:26.879Z,975.58
2022-11-24T03:20:26.864Z,975.59
2022-11-24T03:21:26.858Z,975.58
2022-11-24T03:22:26.859Z,975.57
2022-11-24T03:23:26.841Z,975.58
2022-11-24T03:24:26.829Z,975.60
2022-11-24T03:25:26.828Z,975.61
2022-11-24T03:26:26.835Z,975.61
2022-11-24T03:27:26.805Z,975.62
2022-11-24T03:28:26.804Z,975.63
2022-11-24T03:29:25.770Z,975.67
2022-11-24T03:30:26.758Z,975.67
2022-11-24T03:31:26.810Z,975.68
2022-11-24T03:32:26.744Z,975.68
2022-11-24T03:33:26.739Z,975.69
2022-11-24T03:34:26.729Z,975.70
2022-11-24T03:35:26.713Z,975.69
2022-11-24T03:36:26.714Z,975.70
2022-11-24T03:37:26.717Z,975.70
2022-11-24T03:38:26.693Z,975.71
2022-11-24T03:39:26.684Z,975.70
2022-11-24T03:40:26.696Z,975.72
2022-11-24T03:41:26.649Z,975.73
2022-11-24T03:42:26.657Z,975.74
2022-11-24T03:43:26.635Z,975.75
2022-11-24T03:44:26.637Z,975.76
2022-11-24T03:46:25.623Z,975.76
2022-11-24T03:47:26.595Z,975.77
2022-11-24T03:48:26.572Z,975.79
2022-11-24T03:49:26.565Z,975.80
2022-11-24T03:50:26.574Z,975.79
2022-11-24T03:51:26.542Z,975.82
2022-11-24T03:52:26.530Z,975.82
2022-11-24T03:53:26.537Z,975.83
2022-11-24T03:54:26.501Z,975.84
2022-11-24T03:55:26.509Z,975.82
2022-11-24T03:56:26.517Z,975.82
2022-11-24T03:57:26.476Z,975.82
2022-11-24T03:58:26.492Z,975.81
2022-11-24T03:59:26.475Z,975.80
2022-11-24T04:00:26.441Z,975.80
2022-11-24T04:01:26.501Z,975.83
2022-11-24T04:02:26.488Z,975.83
2022-11-24T04:03:26.416Z,975.85
2022-11-24T04:04:26.396Z,975.86
2022-11-24T04:05:26.407Z,975.89
2022-11-24T04:06:26.393Z,975.89
2022-11-24T04:07:26.438Z,975.89
2022-11-24T04:08:26.359Z,975.92
2022-11-24T04:09:26.352Z,975.94
2022-11-24T04:10:26.333Z,975.96
2022-11-24T04:11:26.347Z,975.97
2022-11-24T04:12:26.326Z,975.98
2022-11-24T04:13:26.320Z,976.01
2022-11-24T04:14:26.295Z,976.03
2022-11-24T04:15:26.317Z,976.05
2022-11-24T04:16:26.346Z,976.06
2022-11-24T04:17:26.270Z,976.09
2022-11-24T04:18:26.262Z,976.10
2022-11-24T04:19:26.252Z,976.10
2022-11-24T04:20:26.230Z,976.10
2022-11-24T04:21:26.220Z,976.09
2022-11-24T04:22:26.216Z,976.09
2022-11-24T04:23:26.209Z,976.09
2022-11-24T04:24:26.199Z,976.10
2022-11-24T04:25:26.178Z,976.10
2022-11-24T04:26:26.166Z,976.11
2022-11-24T04:27:26.158Z,976.12
2022-11-24T04:28:26.160Z,976.14
2022-11-24T04:29:26.149Z,976.15
2022-11-24T04:30:26.124Z,976.16
2022-11-24T04:31:26.174Z,976.16
2022-11-24T04:32:26.103Z,976.17
2022-11-24T04:33:26.118Z,976.19
2022-11-24T04:34:26.095Z,976.20
2022-11-24T04:35:26.076Z,976.24
2022-11-24T04:36:26.062Z,976.25
2022-11-24T04:37:26.066Z,976.24
2022-11-24T04:39:23.122Z,976.25
2022-11-24T04:39:30.715Z,976.28
2022-11-24T04:40:26.034Z,976.29
2022-11-24T04:41:26.015Z,976.31
2022-11-24T04:42:26.008Z,976.31
2022-11-24T04:43:25.989Z,976.30
2022-11-24T04:44:25.980Z,976.32
2022-11-24T04:45:25.997Z,976.32
2022-11-24T04:46:25.996Z,976.34
2022-11-24T04:47:25.948Z,976.34
2022-11-24T04:48:25.937Z,976.35
2022-11-24T04:49:25.945Z,976.37
2022-11-24T04:50:25.914Z,976.39
2022-11-24T04:51:25.923Z,976.41
2022-11-24T04:52:25.897Z,976.43
2022-11-24T04:53:25.888Z,976.44
2022-11-24T04:54:25.876Z,976.46
2022-11-24T04:55:25.879Z,976.46
2022-11-24T04:56:25.866Z,976.47
2022-11-24T04:57:25.855Z,976.47
2022-11-24T04:58:25.834Z,976.48
2022-11-24T04:59:25.826Z,976.49
2022-11-24T05:00:25.810Z,976.51
2022-11-24T05:01:25.851Z,976.52
2022-11-24T05:02:25.800Z,976.54
2022-11-24T05:03:25.778Z,976.57
2022-11-24T05:04:25.812Z,976.58
2022-11-24T05:05:25.776Z,976.59
2022-11-24T05:06:25.752Z,976.61
2022-11-24T05:07:25.845Z,976.63
2022-11-24T05:08:25.729Z,976.63
2022-11-24T05:09:41.736Z,976.64
2022-11-24T05:10:25.711Z,976.63
2022-11-24T05:11:25.713Z,976.64
2022-11-24T05:12:25.699Z,976.64
2022-11-24T05:13:25.688Z,976.64
2022-11-24T05:14:25.680Z,976.65
2022-11-24T05:15:25.670Z,976.65
2022-11-24T05:16:25.745Z,976.68
2022-11-24T05:17:25.657Z,976.69
2022-11-24T05:18:25.639Z,976.69
2022-11-24T05:19:29.839Z,976.69
2022-11-24T05:20:25.620Z,976.69
2022-11-24T05:21:25.620Z,976.70
2022-11-24T05:22:25.580Z,976.73
2022-11-24T05:23:25.614Z,976.73
2022-11-24T05:24:25.559Z,976.73
2022-11-24T05:25:25.571Z,976.72
2022-11-24T05:26:25.538Z,976.75
2022-11-24T05:27:25.557Z,976.75
2022-11-24T05:28:25.516Z,976.74
2022-11-24T05:29:25.549Z,976.75
2022-11-24T05:30:25.493Z,976.75
2022-11-24T05:31:25.574Z,976.75
2022-11-24T05:32:25.483Z,976.76
2022-11-24T05:33:25.494Z,976.78
2022-11-24T05:34:25.465Z,976.78
2022-11-24T05:35:25.464Z,976.81
2022-11-24T05:36:25.439Z,976.81
2022-11-24T05:37:25.454Z,976.81
2022-11-24T05:38:25.427Z,976.82
2022-11-24T05:39:25.448Z,976.82
2022-11-24T05:40:25.403Z,976.82
2022-11-24T05:41:25.416Z,976.82
2022-11-24T05:42:25.377Z,976.82
2022-11-24T05:43:25.395Z,976.84
2022-11-24T05:44:25.364Z,976.85
2022-11-24T05:45:25.369Z,976.88
2022-11-24T05:46:25.385Z,976.88
2022-11-24T05:47:25.336Z,976.89
2022-11-24T05:48:25.312Z,976.91
2022-11-24T05:49:25.328Z,976.92
2022-11-24T05:50:25.315Z,976.93
2022-11-24T05:51:25.312Z,976.96
2022-11-24T05:52:25.270Z,976.97
2022-11-24T05:53:25.275Z,976.99
2022-11-24T05:54:25.250Z,976.98
2022-11-24T05:55:25.252Z,976.98
2022-11-24T05:56:25.263Z,977.00
2022-11-24T05:57:25.250Z,977.03
2022-11-24T05:58:25.213Z,977.04
2022-11-24T05:59:25.213Z,977.05
2022-11-24T06:00:25.186Z,977.05
2022-11-24T06:01:25.190Z,977.05
2022-11-24T06:02:25.347Z,977.05
2022-11-24T06:03:25.195Z,977.06
2022-11-24T06:04:24.136Z,977.06
2022-11-24T06:05:25.149Z,977.07
2022-11-24T06:06:25.127Z,977.10
2022-11-24T06:07:25.227Z,977.11
2022-11-24T06:08:29.680Z,977.12
2022-11-24T06:09:25.080Z,977.14
2022-11-24T06:10:25.084Z,977.16
2022-11-24T06:11:25.055Z,977.16
2022-11-24T06:12:25.000Z,977.16
2022-11-24T06:13:25.154Z,977.17
2022-11-24T06:14:25.045Z,977.16
2022-11-24T06:15:25.059Z,977.17
2022-11-24T06:16:25.051Z,977.17
2022-11-24T06:17:25.024Z,977.20
2022-11-24T06:18:25.008Z,977.23
2022-11-24T06:19:24.972Z,977.24
2022-11-24T06:20:28.494Z,977.24
2022-11-24T06:21:24.932Z,977.24
2022-11-24T06:22:24.899Z,977.26
2022-11-24T06:23:24.938Z,977.24
2022-11-24T06:24:24.877Z,977.23
2022-11-24T06:25:24.901Z,977.24
2022-11-24T06:26:24.860Z,977.21
2022-11-24T06:27:24.885Z,977.21
2022-11-24T06:28:24.840Z,977.21
2022-11-24T06:29:24.866Z,977.22
2022-11-24T06:30:24.828Z,977.24
2022-11-24T06:31:24.855Z,977.24
2022-11-24T06:32:24.800Z,977.25
2022-11-24T06:33:24.800Z,977.24
2022-11-24T06:34:24.813Z,977.23
2022-11-24T06:35:24.771Z,977.23
2022-11-24T06:36:24.768Z,977.22
2022-11-24T06:37:24.745Z,977.23
2022-11-24T06:38:24.783Z,977.23
2022-11-24T06:39:25.023Z,977.23
2022-11-24T06:40:24.729Z,977.25
2022-11-24T06:41:24.706Z,977.26
2022-11-24T06:42:24.737Z,977.23
2022-11-24T06:43:24.691Z,977.25
2022-11-24T06:44:24.684Z,977.24
2022-11-24T06:45:24.701Z,977.24
2022-11-24T06:46:24.689Z,977.28
2022-11-24T06:47:24.645Z,977.30
2022-11-24T06:48:24.646Z,977.32
2022-11-24T06:49:24.631Z,977.31
2022-11-24T06:50:26.947Z,977.33
2022-11-24T06:51:24.612Z,977.35
2022-11-24T06:52:24.633Z,977.36
2022-11-24T06:53:24.583Z,977.36
2022-11-24T06:54:24.600Z,977.38
2022-11-24T06:55:24.567Z,977.41
2022-11-24T06:56:24.578Z,977.41
2022-11-24T06:57:24.537Z,977.40
2022-11-24T06:58:24.565Z,977.36
2022-11-24T06:59:24.514Z,977.35
2022-11-24T07:00:24.519Z,977.36
2022-11-24T07:01:24.524Z,977.37
2022-11-24T07:02:24.510Z,977.43
2022-11-24T07:03:24.546Z,977.45
2022-11-24T07:04:24.488Z,977.42
2022-11-24T07:05:24.448Z,977.44
2022-11-24T07:06:24.471Z,977.46
2022-11-24T07:07:24.484Z,977.47
2022-11-24T07:08:24.459Z,977.48
2022-11-24T07:09:24.427Z,977.50
2022-11-24T07:10:24.427Z,977.53
2022-11-24T07:11:24.388Z,977.56
2022-11-24T07:12:24.415Z,977.56
2022-11-24T07:13:24.372Z,977.56
2022-11-24T07:14:24.385Z,977.57
2022-11-24T07:15:24.373Z,977.57
2022-11-24T07:16:24.415Z,977.58
2022-11-24T07:17:24.322Z,977.59
2022-11-24T07:18:24.345Z,977.59
2022-11-24T07:19:25.179Z,977.60
2022-11-24T07:20:24.319Z,977.58
2022-11-24T07:21:24.298Z,977.61
2022-11-24T07:22:24.302Z,977.64
2022-11-24T07:23:24.265Z,977.65
2022-11-24T07:24:24.282Z,977.68
2022-11-24T07:25:24.249Z,977.68
2022-11-24T07:26:24.256Z,977.68
2022-11-24T07:27:24.220Z,977.69
2022-11-24T07:28:24.251Z,977.70
2022-11-24T07:29:24.211Z,977.71
2022-11-24T07:30:24.203Z,977.72
2022-11-24T07:31:24.234Z,977.73
2022-11-24T07:32:24.200Z,977.75
2022-11-24T07:33:24.178Z,977.76
2022-11-24T07:34:24.187Z,977.75
2022-11-24T07:35:24.141Z,977.78
2022-11-24T07:36:24.161Z,977.78
2022-11-24T07:37:29.640Z,977.81
2022-11-24T07:38:24.125Z,977.81
2022-11-24T07:39:24.093Z,977.80
2022-11-24T07:40:24.116Z,977.79
2022-11-24T07:41:24.078Z,977.82
2022-11-24T07:42:24.122Z,977.84
2022-11-24T07:43:24.064Z,977.84
2022-11-24T07:44:24.057Z,977.85
2022-11-24T07:45:24.037Z,977.87
2022-11-24T07:46:24.111Z,977.86
2022-11-24T07:47:24.011Z,977.89
2022-11-24T07:48:24.035Z,977.89
2022-11-24T07:49:23.994Z,977.92
2022-11-24T07:50:24.002Z,977.92
2022-11-24T07:51:23.983Z,977.92
2022-11-24T07:52:24.002Z,977.94
2022-11-24T07:53:23.963Z,977.93
2022-11-24T07:54:23.968Z,977.91
2022-11-24T07:55:23.937Z,977.92
2022-11-24T07:56:23.948Z,977.94
2022-11-24T07:57:23.920Z,977.97
2022-11-24T07:58:26.480Z,977.96
2022-11-24T07:59:23.917Z,977.97
2022-11-24T08:00:23.907Z,977.97
2022-11-24T08:01:23.897Z,977.97
2022-11-24T08:02:23.881Z,977.96
2022-11-24T08:03:23.888Z,977.96
2022-11-24T08:04:23.877Z,977.96
2022-11-24T08:05:23.836Z,977.96
2022-11-24T08:06:27.401Z,977.97
2022-11-24T08:07:23.876Z,977.97
2022-11-24T08:08:23.806Z,977.97
2022-11-24T08:09:23.791Z,977.96
2022-11-24T08:10:23.800Z,977.95
2022-11-24T08:11:23.761Z,977.94
2022-11-24T08:12:23.766Z,977.94
2022-11-24T08:13:23.740Z,977.93
2022-11-24T08:14:23.760Z,977.93
2022-11-24T08:15:23.719Z,977.95
2022-11-24T08:16:23.796Z,977.95
2022-11-24T08:17:23.718Z,977.97
2022-11-24T08:18:23.714Z,977.94
2022-11-24T08:19:23.697Z,977.96
2022-11-24T08:20:23.700Z,977.97
2022-11-24T08:21:23.803Z,977.98
2022-11-24T08:22:23.685Z,977.97
2022-11-24T08:23:23.640Z,977.96
2022-11-24T08:24:23.645Z,977.95
2022-11-24T08:25:23.623Z,977.93
2022-11-24T08:26:23.646Z,977.92
2022-11-24T08:27:23.595Z,977.94
2022-11-24T08:28:23.596Z,977.95
2022-11-24T08:29:23.579Z,977.94
2022-11-24T08:30:23.576Z,977.94
2022-11-24T08:31:23.604Z,977.95
2022-11-24T08:32:23.607Z,977.98
2022-11-24T08:33:23.532Z,977.96
2022-11-24T08:34:23.554Z,977.99
2022-11-24T08:35:23.511Z,978.00
2022-11-24T08:36:23.537Z,978.02
2022-11-24T08:37:23.495Z,978.00
2022-11-24T08:38:23.504Z,978.00
2022-11-24T08:39:23.482Z,977.99
2022-11-24T08:40:23.605Z,977.99
2022-11-24T08:41:23.443Z,977.98
2022-11-24T08:42:23.478Z,977.98
2022-11-24T08:43:23.420Z,977.97
2022-11-24T08:44:23.454Z,977.97
2022-11-24T08:45:25.643Z,977.97
2022-11-24T08:46:23.493Z,977.97
2022-11-24T08:47:23.381Z,977.96
2022-11-24T08:48:23.395Z,978.00
2022-11-24T08:49:23.372Z,977.98
2022-11-24T08:50:23.546Z,978.02
2022-11-24T08:51:23.343Z,977.99
2022-11-24T08:52:23.345Z,978.02
2022-11-24T08:53:23.329Z,978.00
2022-11-24T08:54:23.329Z,978.03
2022-11-24T08:55:23.322Z,978.02
2022-11-24T08:56:23.307Z,978.04
2022-11-24T08:57:23.278Z,978.03
2022-11-24T08:58:23.292Z,978.05
2022-11-24T08:59:23.329Z,978.03
2022-11-24T09:00:23.334Z,978.07
2022-11-24T09:01:23.336Z,978.03
2022-11-24T09:02:23.236Z,978.06
2022-11-24T09:03:23.244Z,978.06
2022-11-24T09:04:23.268Z,978.09
2022-11-24T09:05:50.539Z,978.09
2022-11-24T09:06:23.318Z,978.14
2022-11-24T09:07:23.266Z,978.15
2022-11-24T09:08:23.213Z,978.12
2022-11-24T09:09:23.148Z,978.13
2022-11-24T09:10:23.185Z,978.18
2022-11-24T09:11:23.133Z,978.13
2022-11-24T09:12:23.145Z,978.15
2022-11-24T09:13:23.104Z,978.16
2022-11-24T09:14:23.130Z,978.18
2022-11-24T09:15:23.100Z,978.17
2022-11-24T09:16:23.152Z,978.22
2022-11-24T09:17:23.065Z,978.23
2022-11-24T09:18:27.487Z,978.21
2022-11-24T09:19:23.068Z,978.23
2022-11-24T09:20:23.061Z,978.23
2022-11-24T09:21:23.033Z,978.28
2022-11-24T09:22:23.053Z,978.27
2022-11-24T09:23:23.010Z,978.29
2022-11-24T09:24:23.017Z,978.30
2022-11-24T09:25:22.996Z,978.30
2022-11-24T09:26:23.011Z,978.30
2022-11-24T09:27:22.971Z,978.31
2022-11-24T09:28:22.968Z,978.31
2022-11-24T09:29:22.948Z,978.31
2022-11-24T09:30:22.968Z,978.33
2022-11-24T09:31:23.046Z,978.35
2022-11-24T09:32:22.949Z,978.38
2022-11-24T09:33:22.892Z,978.36
2022-11-24T09:34:22.912Z,978.36
2022-11-24T09:35:22.870Z,978.39
2022-11-24T09:36:22.912Z,978.40
2022-11-24T09:37:24.280Z,978.39
2022-11-24T09:38:22.858Z,978.41
2022-11-24T09:39:22.829Z,978.42
2022-11-24T09:40:22.872Z,978.41
2022-11-24T09:41:22.816Z,978.41
2022-11-24T09:42:22.852Z,978.42
2022-11-24T09:43:22.796Z,978.43
2022-11-24T09:44:22.797Z,978.43
2022-11-24T09:45:41.739Z,978.45
2022-11-24T09:46:22.790Z,978.42
2022-11-24T09:47:22.751Z,978.45
2022-11-24T09:48:22.770Z,978.41
2022-11-24T09:49:22.726Z,978.42
2022-11-24T09:50:22.768Z,978.41
2022-11-24T09:51:22.705Z,978.43
2022-11-24T09:52:22.758Z,978.44
2022-11-24T09:53:22.683Z,978.50
2022-11-24T09:54:22.811Z,978.44
2022-11-24T09:55:22.663Z,978.50
2022-11-24T09:56:22.673Z,978.48
2022-11-24T09:57:22.646Z,978.50
2022-11-24T09:58:22.658Z,978.47
2022-11-24T09:59:22.641Z,978.46
2022-11-24T10:00:22.633Z,978.49
2022-11-24T10:01:22.687Z,978.48
2022-11-24T10:02:22.628Z,978.48
2022-11-24T10:03:22.577Z,978.47
2022-11-24T10:04:22.632Z,978.47
2022-11-24T10:05:22.564Z,978.48
2022-11-24T10:06:22.574Z,978.49
2022-11-24T10:07:22.613Z,978.49
2022-11-24T10:08:22.571Z,978.50
2022-11-24T10:09:22.519Z,978.50
2022-11-24T10:10:25.068Z,978.54
2022-11-24T10:11:22.490Z,978.57
2022-11-24T10:12:22.502Z,978.58
2022-11-24T10:13:22.474Z,978.57
2022-11-24T10:14:22.494Z,978.59
2022-11-24T10:15:22.467Z,978.60
2022-11-24T10:16:22.554Z,978.64
2022-11-24T10:17:22.430Z,978.60
2022-11-24T10:18:22.443Z,978.62
2022-11-24T10:19:22.414Z,978.65
2022-11-24T10:20:22.421Z,978.64
2022-11-24T10:21:22.415Z,978.64
2022-11-24T10:22:22.403Z,978.64
2022-11-24T10:23:22.364Z,978.67
2022-11-24T10:24:22.395Z,978.67
2022-11-24T10:25:22.350Z,978.67
2022-11-24T10:26:22.360Z,978.67
2022-11-24T10:27:22.322Z,978.67
2022-11-24T10:28:22.334Z,978.68
2022-11-24T10:29:22.311Z,978.67
2022-11-24T10:30:22.303Z,978.66
2022-11-24T10:31:22.318Z,978.66
2022-11-24T10:32:22.305Z,978.66
2022-11-24T10:33:27.127Z,978.68
2022-11-24T10:34:22.291Z,978.67
2022-11-24T10:35:22.262Z,978.69
2022-11-24T10:36:22.263Z,978.69
2022-11-24T10:37:22.266Z,978.74
2022-11-24T10:38:22.228Z,978.71
2022-11-24T10:39:22.199Z,978.69
2022-11-24T10:40:48.731Z,978.68
2022-11-24T10:41:22.192Z,978.68
2022-11-24T10:42:22.194Z,978.68
2022-11-24T10:43:22.184Z,978.68
2022-11-24T10:44:22.162Z,978.70
2022-11-24T10:45:22.154Z,978.69
2022-11-24T10:46:22.191Z,978.69
2022-11-24T10:47:22.113Z,978.68
2022-11-24T10:48:22.193Z,978.69
2022-11-24T10:49:22.093Z,978.70
2022-11-24T10:50:22.093Z,978.68
2022-11-24T10:51:22.119Z,978.70
2022-11-24T10:52:22.061Z,978.71
2022-11-24T10:53:22.079Z,978.72
2022-11-24T10:54:22.062Z,978.72
2022-11-24T10:55:22.055Z,978.72
2022-11-24T10:56:22.060Z,978.70
2022-11-24T10:57:22.039Z,978.71
2022-11-24T10:58:22.017Z,978.70
2022-11-24T10:59:22.051Z,978.72
2022-11-24T11:00:21.985Z,978.72
2022-11-24T11:01:22.059Z,978.73
2022-11-24T11:02:22.010Z,978.75
2022-11-24T11:03:21.975Z,978.74
2022-11-24T11:04:21.967Z,978.73
2022-11-24T11:05:21.964Z,978.73
2022-11-24T11:06:21.918Z,978.73
2022-11-24T11:07:21.994Z,978.74
2022-11-24T11:08:21.906Z,978.74
2022-11-24T11:09:21.932Z,978.75
2022-11-24T11:10:21.882Z,978.76
2022-11-24T11:11:21.913Z,978.75
2022-11-24T11:12:42.668Z,978.78
2022-11-24T11:13:21.884Z,978.76
2022-11-24T11:14:21.843Z,978.78
2022-11-24T11:15:21.838Z,978.79
2022-11-24T11:16:21.847Z,978.79
2022-11-24T11:17:21.815Z,978.78
2022-11-24T11:18:21.808Z,978.79
2022-11-24T11:19:47.283Z,978.79
2022-11-24T11:20:21.784Z,978.78
2022-11-24T11:21:21.833Z,978.79
2022-11-24T11:22:21.747Z,978.80
2022-11-24T11:23:21.771Z,978.80
2022-11-24T11:24:21.748Z,978.79
2022-11-24T11:25:21.782Z,978.79
2022-11-24T11:26:21.710Z,978.78
2022-11-24T11:27:21.912Z,978.78
2022-11-24T11:28:21.689Z,978.76
2022-11-24T11:31:22.171Z,978.78
2022-11-24T11:34:25.258Z,978.80
2022-11-24T11:35:21.675Z,978.80
2022-11-24T11:36:21.615Z,978.81
2022-11-24T11:37:21.608Z,978.81
2022-11-24T11:38:21.587Z,978.82
2022-11-24T11:39:21.608Z,978.82
2022-11-24T11:40:21.566Z,978.82
2022-11-24T11:41:21.905Z,978.84
2022-11-24T11:42:53.681Z,978.84
2022-11-24T11:43:21.567Z,978.82
2022-11-24T11:44:21.584Z,978.87
2022-11-24T11:45:21.574Z,978.86
2022-11-24T11:46:21.769Z,978.86
2022-11-24T11:47:21.596Z,978.88
2022-11-24T11:48:21.950Z,978.88
2022-11-24T11:49:21.489Z,978.89
2022-11-24T11:50:21.475Z,978.93
2022-11-24T11:51:23.961Z,978.88
2022-11-24T11:52:21.434Z,978.89
2022-11-24T11:53:21.449Z,978.88
2022-11-24T11:54:21.411Z,978.89
2022-11-24T11:55:21.477Z,978.88
2022-11-24T11:56:21.403Z,978.87
2022-11-24T11:57:21.425Z,978.90
2022-11-24T11:58:21.393Z,978.93
2022-11-24T11:59:21.388Z,978.92
2022-11-24T12:00:21.378Z,978.95
2022-11-24T12:01:21.372Z,978.96
2022-11-24T12:02:21.544Z,978.94
2022-11-24T12:03:21.455Z,978.93
2022-11-24T12:04:21.344Z,978.94
2022-11-24T12:05:21.328Z,978.96
2022-11-24T12:06:21.314Z,978.96
2022-11-24T12:07:21.398Z,978.96
2022-11-24T12:08:21.859Z,978.96
2022-11-24T12:09:21.533Z,978.95
2022-11-24T12:10:21.244Z,978.96
2022-11-24T12:11:21.260Z,978.97
2022-11-24T12:12:21.232Z,978.96
2022-11-24T12:13:21.245Z,978.94
2022-11-24T12:14:21.208Z,978.94
2022-11-24T12:15:21.217Z,978.96
2022-11-24T12:16:21.238Z,978.96
2022-11-24T12:17:21.250Z,978.97
2022-11-24T12:18:55.141Z,978.99
2022-11-24T12:19:21.304Z,978.99
2022-11-24T12:20:21.140Z,978.97
2022-11-24T12:21:26.194Z,978.97
2022-11-24T12:22:21.135Z,978.98
2022-11-24T12:23:21.155Z,978.99
2022-11-24T12:24:21.114Z,979.02
2022-11-24T12:25:21.132Z,979.04
2022-11-24T12:26:21.073Z,979.08
2022-11-24T12:27:23.108Z,979.09
2022-11-24T12:28:21.075Z,979.08
2022-11-24T12:29:21.110Z,979.11
2022-11-24T12:30:21.046Z,979.11
2022-11-24T12:31:21.082Z,979.11
2022-11-24T12:32:21.438Z,979.13
2022-11-24T12:33:21.014Z,979.12
2022-11-24T12:34:21.023Z,979.13